Buoy 44845

sailwx.info

Track history (hours):
 
Tides and Currents Weather Stations Pressure Air Temp Water Temp Dewpoint Dewpoint Depression Visibility Wind Speed Wind Dir Waves Ship Positions

Drifting buoy 44845

Last reported at 2016-Jul-24 00:01 UTC. Time now 2016-Jul-24 01:00 UTC.
Position N 71°59' E 017°41'.

Date/timePositionNaut miles runAvg speedWind from/ knotsBaromVisibWave heightAir tempDewpointWater temp
2016-Jul-24 00:01N 71°59' E 017°41'0 0.1
2016-Jul-23 23:01N 71°59' E 017°40'0 0.1
2016-Jul-23 22:01N 71°59' E 017°41'1 0.3
2016-Jul-23 20:01N 71°60' E 017°41'0 0.4
2016-Jul-23 19:01N 72°00' E 017°41'1 0.6
2016-Jul-23 18:01N 72°01' E 017°40'1 0.7
2016-Jul-23 17:01N 72°01' E 017°38'1 0.7
2016-Jul-23 16:01N 72°01' E 017°36'1 0.8
2016-Jul-23 15:01N 72°01' E 017°34'1 0.8
2016-Jul-23 14:01N 72°01' E 017°31'1 0.6
2016-Jul-23 13:01N 72°01' E 017°29'0 0.4
2016-Jul-23 12:01N 72°01' E 017°28'0 0.4
2016-Jul-23 11:01N 72°00' E 017°28'1 0.5
2016-Jul-23 10:01N 71°60' E 017°29'0 0.4
2016-Jul-23 09:01N 71°59' E 017°30'0 0.4
2016-Jul-23 08:01N 71°59' E 017°31'0 0.5
2016-Jul-23 07:01N 71°59' E 017°32'1 0.3
2016-Jul-23 05:01N 71°59' E 017°34'0 0.2
2016-Jul-23 04:01N 71°60' E 017°35'0 0.3
2016-Jul-23 03:01N 71°60' E 017°35'0 0.3
2016-Jul-23 02:01N 72°00' E 017°35'1 0.4
2016-Jul-23 00:01N 72°01' E 017°33'0 0.2
2016-Jul-22 23:01N 72°01' E 017°32'0 0.3
2016-Jul-22 22:01N 72°00' E 017°31'0 0.4
2016-Jul-22 21:01N 72°00' E 017°31'1 0.6
2016-Jul-22 20:01N 71°59' E 017°32'1 0.6
2016-Jul-22 19:01N 71°59' E 017°34'1 0.5
2016-Jul-22 18:01N 71°59' E 017°36'0 0.3
2016-Jul-22 17:01N 71°59' E 017°37'0 0.2
2016-Jul-22 16:01N 71°60' E 017°37'0 0.1
2016-Jul-22 15:01N 71°59' E 017°37'1 0.3
2016-Jul-22 13:01N 71°59' E 017°36'0 0.4
2016-Jul-22 12:01N 71°59' E 017°36'0 0.4
2016-Jul-22 11:01N 71°58' E 017°36'1 0.5
2016-Jul-22 10:01N 71°58' E 017°38'1 0.7
2016-Jul-22 08:01N 71°57' E 017°42'1 0.7
2016-Jul-22 07:01N 71°57' E 017°44'1 0.7
2016-Jul-22 06:01N 71°57' E 017°46'1 0.5
2016-Jul-22 05:01N 71°57' E 017°48'0 0.5
2016-Jul-22 04:01N 71°57' E 017°49'0 0.2
2016-Jul-22 02:01N 71°58' E 017°50'0 0.2
2016-Jul-22 00:01N 71°58' E 017°49'0 0.1
2016-Jul-21 23:01N 71°57' E 017°49'0 0.1
2016-Jul-21 22:01N 71°57' E 017°49'1 0.2
2016-Jul-21 19:01N 71°58' E 017°51'1 0.3
2016-Jul-21 17:01N 71°58' E 017°51'1 0.4
2016-Jul-21 15:01N 71°59' E 017°49'0 0.4
2016-Jul-21 14:01N 71°59' E 017°47'0 0.4
2016-Jul-21 13:01N 71°58' E 017°46'1 0.3
2016-Jul-21 11:01N 71°58' E 017°44'0 0.2
2016-Jul-21 10:01N 71°58' E 017°43'0 0.1
2016-Jul-21 09:01N 71°58' E 017°43'0 0.1
2016-Jul-21 08:01N 71°58' E 017°43'0 0.1
2016-Jul-21 07:01N 71°59' E 017°43'0 0.2
2016-Jul-21 06:01N 71°59' E 017°43'0 0.2
2016-Jul-21 05:01N 71°59' E 017°43'0 0.3
2016-Jul-21 04:01N 71°59' E 017°42'1 0.5
2016-Jul-21 03:01N 71°59' E 017°40'1 0.7
2016-Jul-21 02:01N 71°60' E 017°38'1 0.7
2016-Jul-21 01:01N 71°60' E 017°36'1 0.8
2016-Jul-21 00:01N 71°60' E 017°33'1 0.8
2016-Jul-20 23:01N 71°60' E 017°31'1 0.7
2016-Jul-20 22:01N 71°59' E 017°29'1 0.5
2016-Jul-20 21:01N 71°59' E 017°27'0 0.3
2016-Jul-20 20:01N 71°59' E 017°26'0 0.3
2016-Jul-20 19:01N 71°59' E 017°25'0 0.4
2016-Jul-20 18:01N 71°59' E 017°24'0 0.4
2016-Jul-20 17:01N 71°59' E 017°23'1 0.6
2016-Jul-20 16:01N 71°60' E 017°21'1 0.8
2016-Jul-20 15:01N 71°60' E 017°18'1 0.9
2016-Jul-20 14:01N 71°60' E 017°15'1 1.0
2016-Jul-20 13:01N 71°60' E 017°12'1 0.9
2016-Jul-20 12:01N 71°59' E 017°09'1 0.8
2016-Jul-20 11:01N 71°59' E 017°07'1 0.6
2016-Jul-20 10:01N 71°58' E 017°05'1 0.5
2016-Jul-20 09:01N 71°58' E 017°04'0 0.5
2016-Jul-20 08:01N 71°58' E 017°03'0 0.3
2016-Jul-20 07:01N 71°57' E 017°03'0 0.1
2016-Jul-20 06:01N 71°58' E 017°03'0 0.4
2016-Jul-20 05:01N 71°58' E 017°02'1 0.6
2016-Jul-20 04:01N 71°58' E 017°01'1 0.7
2016-Jul-20 03:01N 71°59' E 016°59'1 0.9
2016-Jul-20 02:01N 71°59' E 016°56'1 1.0
2016-Jul-20 01:01N 71°60' E 016°53'1 1.0
2016-Jul-20 00:01N 71°60' E 016°50'1 1.0
2016-Jul-19 23:01N 72°00' E 016°47'2 0.9
2016-Jul-19 21:01N 71°60' E 016°41'1 0.8
2016-Jul-19 20:01N 71°60' E 016°39'1 0.8
2016-Jul-19 19:01N 71°60' E 016°36'1 0.7
2016-Jul-19 18:02N 71°59' E 016°34'1 0.7
2016-Jul-19 16:01N 71°58' E 016°30'0 0.4
2016-Jul-19 15:01N 71°58' E 016°29'0 0.2
2016-Jul-19 14:01N 71°58' E 016°29'0 0.2
2016-Jul-19 13:01N 71°58' E 016°29'0 0.3
2016-Jul-19 12:01N 71°58' E 016°28'0 0.3
2016-Jul-19 11:01N 71°57' E 016°28'1 0.3
2016-Jul-19 09:01N 71°57' E 016°26'0 0.3
2016-Jul-19 08:01N 71°57' E 016°25'0 0.2
2016-Jul-19 07:01N 71°57' E 016°25'0 0.5
2016-Jul-19 06:01N 71°57' E 016°24'1 0.3
2016-Jul-19 04:01N 71°57' E 016°24'0 0.3
2016-Jul-19 03:01N 71°57' E 016°25'1 0.5
2016-Jul-19 02:01N 71°58' E 016°24'1 0.7
2016-Jul-19 01:01N 71°59' E 016°23'1 1.0
2016-Jul-19 00:01N 71°59' E 016°21'1 1.2
2016-Jul-18 23:01N 72°00' E 016°18'1 1.2
2016-Jul-18 22:01N 72°01' E 016°14'1 1.2
2016-Jul-18 21:01N 72°01' E 016°11'1 1.1
2016-Jul-18 20:01N 72°01' E 016°07'1 1.3
2016-Jul-18 19:01N 72°00' E 016°03'1 0.5
2016-Jul-18 18:01N 71°60' E 016°02'0 0.2
2016-Jul-18 16:01N 71°60' E 016°01'0 0.2
2016-Jul-18 15:01N 71°59' E 016°01'0 0.2
2016-Jul-18 14:01N 71°59' E 016°02'0 0.3
2016-Jul-18 13:01N 71°59' E 016°02'0 0.3
2016-Jul-18 12:01N 71°59' E 016°03'0 0.3
2016-Jul-18 11:01N 71°59' E 016°04'0 0.4
2016-Jul-18 10:01N 71°58' E 016°04'0 0.4
2016-Jul-18 09:01N 71°58' E 016°05'1 0.5
2016-Jul-18 08:01N 71°57' E 016°06'1 0.7
2016-Jul-18 07:01N 71°57' E 016°07'1 0.8
2016-Jul-18 06:01N 71°57' E 016°09'1 0.9
2016-Jul-18 05:01N 71°56' E 016°12'1 0.8
2016-Jul-18 04:01N 71°56' E 016°14'0 0.5
2016-Jul-18 03:01N 71°56' E 016°16'0 0.4
2016-Jul-18 02:01N 71°55' E 016°16'0 0.4
2016-Jul-18 01:01N 71°55' E 016°16'1 0.6
2016-Jul-18 00:01N 71°54' E 016°15'1 0.8
2016-Jul-17 23:01N 71°54' E 016°14'1 0.9
2016-Jul-17 22:01N 71°53' E 016°13'1 0.7
2016-Jul-17 21:01N 71°52' E 016°13'0 0.4
2016-Jul-17 20:01N 71°52' E 016°14'0 0.5
2016-Jul-17 19:01N 71°51' E 016°14'0 0.4
2016-Jul-17 18:01N 71°51' E 016°14'0 0.5
2016-Jul-17 17:01N 71°50' E 016°14'0 0.5
2016-Jul-17 16:01N 71°50' E 016°14'0 0.3
2016-Jul-17 15:01N 71°50' E 016°15'0 0.3
2016-Jul-17 14:01N 71°49' E 016°15'0 0.4
2016-Jul-17 13:01N 71°49' E 016°17'1 0.6
2016-Jul-17 12:01N 71°49' E 016°19'1 0.6
2016-Jul-17 11:01N 71°50' E 016°20'1 0.7
2016-Jul-17 10:01N 71°50' E 016°22'1 0.7
2016-Jul-17 09:01N 71°50' E 016°25'1 0.7
2016-Jul-17 08:01N 71°50' E 016°27'1 0.9
2016-Jul-17 07:01N 71°50' E 016°30'3 2.9
2016-Jul-17 06:01N 71°51' E 016°38'2 0.8
2016-Jul-17 04:01N 71°52' E 016°42'2 1.5
2016-Jul-17 03:01N 71°53' E 016°46'2 1.2
2016-Jul-17 01:01N 71°55' E 016°50'1 0.9
2016-Jul-17 00:01N 71°56' E 016°50'1 0.8
2016-Jul-16 23:01N 71°57' E 016°50'1 0.6
2016-Jul-16 22:01N 71°58' E 016°49'1 0.5
2016-Jul-16 21:01N 71°58' E 016°48'0 0.2
2016-Jul-16 20:01N 71°58' E 016°48'0 0.2
2016-Jul-16 19:01N 71°58' E 016°49'0 0.3
2016-Jul-16 18:01N 71°58' E 016°50'0 0.3
2016-Jul-16 17:01N 71°58' E 016°51'1 0.3
2016-Jul-16 15:01N 71°59' E 016°52'0 0.4
2016-Jul-16 14:01N 71°59' E 016°54'1 0.4
2016-Jul-16 12:01N 71°59' E 016°56'0 0.2
2016-Jul-16 11:01N 71°59' E 016°56'0 0.2
2016-Jul-16 10:01N 71°59' E 016°56'0 0.1
2016-Jul-16 09:01N 71°59' E 016°56'0 0.1
2016-Jul-16 08:01N 71°59' E 016°56'0 0.2
2016-Jul-16 07:01N 71°59' E 016°56'0 0.3
2016-Jul-16 06:01N 71°60' E 016°57'0 0.3
2016-Jul-16 05:01N 71°60' E 016°58'0 0.4
2016-Jul-16 04:01N 72°00' E 016°58'1 0.5
2016-Jul-16 03:01N 72°01' E 016°58'0 0.4
2016-Jul-16 02:01N 72°01' E 016°58'0 0.4
2016-Jul-16 01:01N 72°02' E 016°57'0 0.4
2016-Jul-16 00:01N 72°02' E 016°56'0 0.4
2016-Jul-15 23:01N 72°02' E 016°55'0 0.5
2016-Jul-15 22:01N 72°03' E 016°54'0 0.5
2016-Jul-15 21:01N 72°03' E 016°52'1 0.5
2016-Jul-15 20:01N 72°03' E 016°51'1 0.5
2016-Jul-15 19:01N 72°03' E 016°49'1 0.6
2016-Jul-15 18:01N 72°03' E 016°47'1 0.4
2016-Jul-15 16:01N 72°03' E 016°45'0 0.4
2016-Jul-15 15:01N 72°03' E 016°44'0 0.3
2016-Jul-15 14:01N 72°04' E 016°43'0 0.3
2016-Jul-15 13:01N 72°04' E 016°42'0 0.3
2016-Jul-15 12:01N 72°04' E 016°41'0 0.2
2016-Jul-15 11:01N 72°04' E 016°40'0 0.3
2016-Jul-15 10:01N 72°04' E 016°40'0 0.3
2016-Jul-15 09:01N 72°04' E 016°39'0 0.4
2016-Jul-15 08:01N 72°05' E 016°38'0 0.4
2016-Jul-15 07:01N 72°05' E 016°37'0 0.4
2016-Jul-15 06:01N 72°05' E 016°37'1 0.7
2016-Jul-15 05:01N 72°06' E 016°36'0 0.5
2016-Jul-15 04:01N 72°06' E 016°36'1 0.6
2016-Jul-15 03:01N 72°07' E 016°35'0 0.5
2016-Jul-15 02:01N 72°07' E 016°34'0 0.4
2016-Jul-15 01:01N 72°08' E 016°33'0 0.4
2016-Jul-15 00:01N 72°08' E 016°32'0 0.4
2016-Jul-14 23:01N 72°08' E 016°32'0 0.4
2016-Jul-14 22:01N 72°09' E 016°32'1 0.5
2016-Jul-14 20:01N 72°10' E 016°32'1 0.8
2016-Jul-14 19:01N 72°10' E 016°31'1 0.7
2016-Jul-14 18:01N 72°11' E 016°30'1 0.7
2016-Jul-14 17:01N 72°12' E 016°29'1 0.6
2016-Jul-14 16:01N 72°12' E 016°29'1 0.4
2016-Jul-14 14:01N 72°13' E 016°28'0 0.3
2016-Jul-14 13:01N 72°13' E 016°28'0 0.4
2016-Jul-14 12:01N 72°13' E 016°28'0 0.4
2016-Jul-14 11:01N 72°14' E 016°28'0 0.4
2016-Jul-14 10:01N 72°14' E 016°28'0 0.4
2016-Jul-14 09:01N 72°15' E 016°28'1 0.5
2016-Jul-14 08:01N 72°15' E 016°28'1 0.6
2016-Jul-14 07:01N 72°16' E 016°27'1 0.6
2016-Jul-14 06:01N 72°16' E 016°26'1 0.6
2016-Jul-14 05:01N 72°17' E 016°25'1 0.5
2016-Jul-14 04:01N 72°17' E 016°23'1 0.6
2016-Jul-14 03:01N 72°17' E 016°22'0 0.5
2016-Jul-14 02:01N 72°18' E 016°21'0 0.3
2016-Jul-14 01:01N 72°18' E 016°20'0 0.3
2016-Jul-14 00:01N 72°18' E 016°19'  
Track history (hours):
 
Tides and Currents Weather Stations Pressure Air Temp Water Temp Dewpoint Dewpoint Depression Visibility Wind Speed Wind Dir Waves Ship Positions

Drifting buoy 44845

Last reported at 2016-Jul-24 00:01 UTC. Time now 2016-Jul-24 01:00 UTC.
Position N 71°59' E 017°41'.

Date/timePositionNaut miles runAvg speedWind from/ knotsBaromVisibWave heightAir tempDewpointWater temp
2016-Jul-24 00:01N 71°59' E 017°41'0 0.1
2016-Jul-23 23:01N 71°59' E 017°40'0 0.1
2016-Jul-23 22:01N 71°59' E 017°41'1 0.3
2016-Jul-23 20:01N 71°60' E 017°41'0 0.4
2016-Jul-23 19:01N 72°00' E 017°41'1 0.6
2016-Jul-23 18:01N 72°01' E 017°40'1 0.7
2016-Jul-23 17:01N 72°01' E 017°38'1 0.7
2016-Jul-23 16:01N 72°01' E 017°36'1 0.8
2016-Jul-23 15:01N 72°01' E 017°34'1 0.8
2016-Jul-23 14:01N 72°01' E 017°31'1 0.6
2016-Jul-23 13:01N 72°01' E 017°29'0 0.4
2016-Jul-23 12:01N 72°01' E 017°28'0 0.4
2016-Jul-23 11:01N 72°00' E 017°28'1 0.5
2016-Jul-23 10:01N 71°60' E 017°29'0 0.4
2016-Jul-23 09:01N 71°59' E 017°30'0 0.4
2016-Jul-23 08:01N 71°59' E 017°31'0 0.5
2016-Jul-23 07:01N 71°59' E 017°32'1 0.3
2016-Jul-23 05:01N 71°59' E 017°34'0 0.2
2016-Jul-23 04:01N 71°60' E 017°35'0 0.3
2016-Jul-23 03:01N 71°60' E 017°35'0 0.3
2016-Jul-23 02:01N 72°00' E 017°35'1 0.4
2016-Jul-23 00:01N 72°01' E 017°33'0 0.2
2016-Jul-22 23:01N 72°01' E 017°32'0 0.3
2016-Jul-22 22:01N 72°00' E 017°31'0 0.4
2016-Jul-22 21:01N 72°00' E 017°31'1 0.6
2016-Jul-22 20:01N 71°59' E 017°32'1 0.6
2016-Jul-22 19:01N 71°59' E 017°34'1 0.5
2016-Jul-22 18:01N 71°59' E 017°36'0 0.3
2016-Jul-22 17:01N 71°59' E 017°37'0 0.2
2016-Jul-22 16:01N 71°60' E 017°37'0 0.1
2016-Jul-22 15:01N 71°59' E 017°37'1 0.3
2016-Jul-22 13:01N 71°59' E 017°36'0 0.4
2016-Jul-22 12:01N 71°59' E 017°36'0 0.4
2016-Jul-22 11:01N 71°58' E 017°36'1 0.5
2016-Jul-22 10:01N 71°58' E 017°38'1 0.7
2016-Jul-22 08:01N 71°57' E 017°42'1 0.7
2016-Jul-22 07:01N 71°57' E 017°44'1 0.7
2016-Jul-22 06:01N 71°57' E 017°46'1 0.5
2016-Jul-22 05:01N 71°57' E 017°48'0 0.5
2016-Jul-22 04:01N 71°57' E 017°49'0 0.2
2016-Jul-22 02:01N 71°58' E 017°50'0 0.2
2016-Jul-22 00:01N 71°58' E 017°49'0 0.1
2016-Jul-21 23:01N 71°57' E 017°49'0 0.1
2016-Jul-21 22:01N 71°57' E 017°49'1 0.2
2016-Jul-21 19:01N 71°58' E 017°51'1 0.3
2016-Jul-21 17:01N 71°58' E 017°51'1 0.4
2016-Jul-21 15:01N 71°59' E 017°49'0 0.4
2016-Jul-21 14:01N 71°59' E 017°47'0 0.4
2016-Jul-21 13:01N 71°58' E 017°46'1 0.3
2016-Jul-21 11:01N 71°58' E 017°44'0 0.2
2016-Jul-21 10:01N 71°58' E 017°43'0 0.1
2016-Jul-21 09:01N 71°58' E 017°43'0 0.1
2016-Jul-21 08:01N 71°58' E 017°43'0 0.1
2016-Jul-21 07:01N 71°59' E 017°43'0 0.2
2016-Jul-21 06:01N 71°59' E 017°43'0 0.2
2016-Jul-21 05:01N 71°59' E 017°43'0 0.3
2016-Jul-21 04:01N 71°59' E 017°42'1 0.5
2016-Jul-21 03:01N 71°59' E 017°40'1 0.7
2016-Jul-21 02:01N 71°60' E 017°38'1 0.7
2016-Jul-21 01:01N 71°60' E 017°36'1 0.8
2016-Jul-21 00:01N 71°60' E 017°33'1 0.8
2016-Jul-20 23:01N 71°60' E 017°31'1 0.7
2016-Jul-20 22:01N 71°59' E 017°29'1 0.5
2016-Jul-20 21:01N 71°59' E 017°27'0 0.3
2016-Jul-20 20:01N 71°59' E 017°26'0 0.3
2016-Jul-20 19:01N 71°59' E 017°25'0 0.4
2016-Jul-20 18:01N 71°59' E 017°24'0 0.4
2016-Jul-20 17:01N 71°59' E 017°23'1 0.6
2016-Jul-20 16:01N 71°60' E 017°21'1 0.8
2016-Jul-20 15:01N 71°60' E 017°18'1 0.9
2016-Jul-20 14:01N 71°60' E 017°15'1 1.0
2016-Jul-20 13:01N 71°60' E 017°12'1 0.9
2016-Jul-20 12:01N 71°59' E 017°09'1 0.8
2016-Jul-20 11:01N 71°59' E 017°07'1 0.6
2016-Jul-20 10:01N 71°58' E 017°05'1 0.5
2016-Jul-20 09:01N 71°58' E 017°04'0 0.5
2016-Jul-20 08:01N 71°58' E 017°03'0 0.3
2016-Jul-20 07:01N 71°57' E 017°03'0 0.1
2016-Jul-20 06:01N 71°58' E 017°03'0 0.4
2016-Jul-20 05:01N 71°58' E 017°02'1 0.6
2016-Jul-20 04:01N 71°58' E 017°01'1 0.7
2016-Jul-20 03:01N 71°59' E 016°59'1 0.9
2016-Jul-20 02:01N 71°59' E 016°56'1 1.0
2016-Jul-20 01:01N 71°60' E 016°53'1 1.0
2016-Jul-20 00:01N 71°60' E 016°50'1 1.0
2016-Jul-19 23:01N 72°00' E 016°47'2 0.9
2016-Jul-19 21:01N 71°60' E 016°41'1 0.8
2016-Jul-19 20:01N 71°60' E 016°39'1 0.8
2016-Jul-19 19:01N 71°60' E 016°36'1 0.7
2016-Jul-19 18:02N 71°59' E 016°34'1 0.7
2016-Jul-19 16:01N 71°58' E 016°30'0 0.4
2016-Jul-19 15:01N 71°58' E 016°29'0 0.2
2016-Jul-19 14:01N 71°58' E 016°29'0 0.2
2016-Jul-19 13:01N 71°58' E 016°29'0 0.3
2016-Jul-19 12:01N 71°58' E 016°28'0 0.3
2016-Jul-19 11:01N 71°57' E 016°28'1 0.3
2016-Jul-19 09:01N 71°57' E 016°26'0 0.3
2016-Jul-19 08:01N 71°57' E 016°25'0 0.2
2016-Jul-19 07:01N 71°57' E 016°25'0 0.5
2016-Jul-19 06:01N 71°57' E 016°24'1 0.3
2016-Jul-19 04:01N 71°57' E 016°24'0 0.3
2016-Jul-19 03:01N 71°57' E 016°25'1 0.5
2016-Jul-19 02:01N 71°58' E 016°24'1 0.7
2016-Jul-19 01:01N 71°59' E 016°23'1 1.0
2016-Jul-19 00:01N 71°59' E 016°21'1 1.2
2016-Jul-18 23:01N 72°00' E 016°18'1 1.2
2016-Jul-18 22:01N 72°01' E 016°14'1 1.2
2016-Jul-18 21:01N 72°01' E 016°11'1 1.1
2016-Jul-18 20:01N 72°01' E 016°07'1 1.3
2016-Jul-18 19:01N 72°00' E 016°03'1 0.5
2016-Jul-18 18:01N 71°60' E 016°02'0 0.2
2016-Jul-18 16:01N 71°60' E 016°01'0 0.2
2016-Jul-18 15:01N 71°59' E 016°01'0 0.2
2016-Jul-18 14:01N 71°59' E 016°02'0 0.3
2016-Jul-18 13:01N 71°59' E 016°02'0 0.3
2016-Jul-18 12:01N 71°59' E 016°03'0 0.3
2016-Jul-18 11:01N 71°59' E 016°04'0 0.4
2016-Jul-18 10:01N 71°58' E 016°04'0 0.4
2016-Jul-18 09:01N 71°58' E 016°05'1 0.5
2016-Jul-18 08:01N 71°57' E 016°06'1 0.7
2016-Jul-18 07:01N 71°57' E 016°07'1 0.8
2016-Jul-18 06:01N 71°57' E 016°09'1 0.9
2016-Jul-18 05:01N 71°56' E 016°12'1 0.8
2016-Jul-18 04:01N 71°56' E 016°14'0 0.5
2016-Jul-18 03:01N 71°56' E 016°16'0 0.4
2016-Jul-18 02:01N 71°55' E 016°16'0 0.4
2016-Jul-18 01:01N 71°55' E 016°16'1 0.6
2016-Jul-18 00:01N 71°54' E 016°15'1 0.8
2016-Jul-17 23:01N 71°54' E 016°14'1 0.9
2016-Jul-17 22:01N 71°53' E 016°13'1 0.7
2016-Jul-17 21:01N 71°52' E 016°13'0 0.4
2016-Jul-17 20:01N 71°52' E 016°14'0 0.5
2016-Jul-17 19:01N 71°51' E 016°14'0 0.4
2016-Jul-17 18:01N 71°51' E 016°14'0 0.5
2016-Jul-17 17:01N 71°50' E 016°14'0 0.5
2016-Jul-17 16:01N 71°50' E 016°14'0 0.3
2016-Jul-17 15:01N 71°50' E 016°15'0 0.3
2016-Jul-17 14:01N 71°49' E 016°15'0 0.4
2016-Jul-17 13:01N 71°49' E 016°17'1 0.6
2016-Jul-17 12:01N 71°49' E 016°19'1 0.6
2016-Jul-17 11:01N 71°50' E 016°20'1 0.7
2016-Jul-17 10:01N 71°50' E 016°22'1 0.7
2016-Jul-17 09:01N 71°50' E 016°25'1 0.7
2016-Jul-17 08:01N 71°50' E 016°27'1 0.9
2016-Jul-17 07:01N 71°50' E 016°30'3 2.9
2016-Jul-17 06:01N 71°51' E 016°38'2 0.8
2016-Jul-17 04:01N 71°52' E 016°42'2 1.5
2016-Jul-17 03:01N 71°53' E 016°46'2 1.2
2016-Jul-17 01:01N 71°55' E 016°50'1 0.9
2016-Jul-17 00:01N 71°56' E 016°50'1 0.8
2016-Jul-16 23:01N 71°57' E 016°50'1 0.6
2016-Jul-16 22:01N 71°58' E 016°49'1 0.5
2016-Jul-16 21:01N 71°58' E 016°48'0 0.2
2016-Jul-16 20:01N 71°58' E 016°48'0 0.2
2016-Jul-16 19:01N 71°58' E 016°49'0 0.3
2016-Jul-16 18:01N 71°58' E 016°50'0 0.3
2016-Jul-16 17:01N 71°58' E 016°51'1 0.3
2016-Jul-16 15:01N 71°59' E 016°52'0 0.4
2016-Jul-16 14:01N 71°59' E 016°54'1 0.4
2016-Jul-16 12:01N 71°59' E 016°56'0 0.2
2016-Jul-16 11:01N 71°59' E 016°56'0 0.2
2016-Jul-16 10:01N 71°59' E 016°56'0 0.1
2016-Jul-16 09:01N 71°59' E 016°56'0 0.1
2016-Jul-16 08:01N 71°59' E 016°56'0 0.2
2016-Jul-16 07:01N 71°59' E 016°56'0 0.3
2016-Jul-16 06:01N 71°60' E 016°57'0 0.3
2016-Jul-16 05:01N 71°60' E 016°58'0 0.4
2016-Jul-16 04:01N 72°00' E 016°58'1 0.5
2016-Jul-16 03:01N 72°01' E 016°58'0 0.4
2016-Jul-16 02:01N 72°01' E 016°58'0 0.4
2016-Jul-16 01:01N 72°02' E 016°57'0 0.4
2016-Jul-16 00:01N 72°02' E 016°56'0 0.4
2016-Jul-15 23:01N 72°02' E 016°55'0 0.5
2016-Jul-15 22:01N 72°03' E 016°54'0 0.5
2016-Jul-15 21:01N 72°03' E 016°52'1 0.5
2016-Jul-15 20:01N 72°03' E 016°51'1 0.5
2016-Jul-15 19:01N 72°03' E 016°49'1 0.6
2016-Jul-15 18:01N 72°03' E 016°47'1 0.4
2016-Jul-15 16:01N 72°03' E 016°45'0 0.4
2016-Jul-15 15:01N 72°03' E 016°44'0 0.3
2016-Jul-15 14:01N 72°04' E 016°43'0 0.3
2016-Jul-15 13:01N 72°04' E 016°42'0 0.3
2016-Jul-15 12:01N 72°04' E 016°41'0 0.2
2016-Jul-15 11:01N 72°04' E 016°40'0 0.3
2016-Jul-15 10:01N 72°04' E 016°40'0 0.3
2016-Jul-15 09:01N 72°04' E 016°39'0 0.4
2016-Jul-15 08:01N 72°05' E 016°38'0 0.4
2016-Jul-15 07:01N 72°05' E 016°37'0 0.4
2016-Jul-15 06:01N 72°05' E 016°37'1 0.7
2016-Jul-15 05:01N 72°06' E 016°36'0 0.5
2016-Jul-15 04:01N 72°06' E 016°36'1 0.6
2016-Jul-15 03:01N 72°07' E 016°35'0 0.5
2016-Jul-15 02:01N 72°07' E 016°34'0 0.4
2016-Jul-15 01:01N 72°08' E 016°33'0 0.4
2016-Jul-15 00:01N 72°08' E 016°32'0 0.4
2016-Jul-14 23:01N 72°08' E 016°32'0 0.4
2016-Jul-14 22:01N 72°09' E 016°32'1 0.5
2016-Jul-14 20:01N 72°10' E 016°32'1 0.8
2016-Jul-14 19:01N 72°10' E 016°31'1 0.7
2016-Jul-14 18:01N 72°11' E 016°30'1 0.7
2016-Jul-14 17:01N 72°12' E 016°29'1 0.6
2016-Jul-14 16:01N 72°12' E 016°29'1 0.4
2016-Jul-14 14:01N 72°13' E 016°28'0 0.3
2016-Jul-14 13:01N 72°13' E 016°28'0 0.4
2016-Jul-14 12:01N 72°13' E 016°28'0 0.4
2016-Jul-14 11:01N 72°14' E 016°28'0 0.4
2016-Jul-14 10:01N 72°14' E 016°28'0 0.4
2016-Jul-14 09:01N 72°15' E 016°28'1 0.5
2016-Jul-14 08:01N 72°15' E 016°28'1 0.6
2016-Jul-14 07:01N 72°16' E 016°27'1 0.6
2016-Jul-14 06:01N 72°16' E 016°26'1 0.6
2016-Jul-14 05:01N 72°17' E 016°25'1 0.5
2016-Jul-14 04:01N 72°17' E 016°23'1 0.6
2016-Jul-14 03:01N 72°17' E 016°22'0 0.5
2016-Jul-14 02:01N 72°18' E 016°21'0 0.3
2016-Jul-14 01:01N 72°18' E 016°20'0 0.3
2016-Jul-14 00:01N 72°18' E 016°19'  

Dump ship's entire track history